Tiempo atmosférico en la estación meteorológica de Sos del Rey Católico, Zaragoza (630 m.)



Fecha
DESCASC
Temp. máxima en grados centígrados (hora)
DESCASC
Temp. mínima en grados centígrados (hora)
DESCASC
Temp. media en grados centígrados
DESCASC
Racha de viento máxima en m/sg (hora)
DESCASC
Velocidad máxima media en intervalos de 10 minutos(hora)
DESCASC
Precipitaciones diarias en mm
DESCASC
Precipitaciones de 00:00 a 06:00 en mm
DESCASC
Precipitaciones de 06:00 a 12:00 en mm
DESCASC
Precipitaciones de 12:00 a 18:00 en mm
DESCASC
Precipitaciones de 18:00 a 24:00 en mm
DESCASC
17-09-2020 30 (15:30) 18.3 (03:50) 24.1 10.83 (14:20) 7.22 (14:20) 0 0 0 0 0
15-09-2020 29.5 (16:10) 16.4 (08:10) 22.9 9.72 (00:20) 6.67 (00:20) 0.6 0.6 0 0 0
14-09-2020 31 (14:50) 16.7 (07:30) 23.9 10 (12:50) 6.39 (00:10) 0 0 0 0 0
13-09-2020 31.5 (16:10) 12.9 (00:00) 22.2 10 (23:10) 6.11 (23:30) 0 0 0 0 0
12-09-2020 30 (16:40) 12 (07:40) 21 5.83 (15:10) 3.33 (15:10) 0 0 0 0 0
11-09-2020 29.3 (16:50) 12.5 (00:00) 20.9 7.22 (18:30) 5.28 (18:10) 0 0 0 0 0
10-09-2020 28.8 (15:00) 14.8 (00:00) 21.8 10.56 (16:30) 7.5 (16:40) 0 0 0 0 0
09-09-2020 28.8 (16:40) 10.5 (08:10) 19.6 8.33 (19:50) 5.28 (19:20) 0 0 0 0 0
08-09-2020 26.4 (16:20) 7.8 (00:00) 17.1 6.94 (16:20) 3.89 (17:10) 0 0 0 0 0
07-09-2020 21.2 (15:00) 11.7 (06:50) 16.5 11.94 (01:10) 8.33 (06:10) 0 0 0 0 0
06-09-2020 21.3 (16:10) 14 (00:00) 17.6 13.61 (21:40) 10.56 (21:40) 0 0 0 0 0
05-09-2020 26.7 (14:00) 14.2 (00:00) 20.5 8.33 (20:10) 6.39 (20:20) 0 0 0 0 0
04-09-2020 31.6 (17:00) 12.8 (00:00) 22.2 6.94 (13:50) 4.17 (14:50) 0 0 0 0 0
03-09-2020 30 (17:30) 8.4 (00:00) 19.2 6.94 (14:10) 3.33 (14:30) 0 0 0 0 0
02-09-2020 25.3 (16:30) 12.9 (00:00) 19.1 9.44 (19:00) 5.56 (18:30) 0 0 0 0 0
01-09-2020 25.3 (16:20) 9.6 (00:00) 17.4 8.89 (19:30) 6.39 (19:30) 0 0 0 0 0
31-08-2020 24.2 (17:40) 8.8 (00:00) 16.5 7.22 (02:00) 4.72 (01:40) 0 0 0 0 0
30-08-2020 18.3 (17:20) 10.3 (00:00) 14.3 11.67 (15:50) 8.33 (17:40) 0 0 0 0 0
29-08-2020 20 (16:00) 11.2 (00:00) 15.6 10.83 (01:30) 7.22 (18:00) 0.4 0 0 0 0.4
28-08-2020 22.7 (15:10) 14.2 (00:00) 18.5 12.22 (18:10) 8.06 (18:10) 0 0 0 0 0
27-08-2020 33.7 (17:30) 14.5 (00:00) 24.1 8.06 (19:20) 5.28 (22:00) 0 0 0 0 0
26-08-2020 33.6 (17:00) 14.4 (00:00) 24 7.78 (20:00) 5.28 (20:20) 0 0 0 0 0
25-08-2020 33.8 (16:50) 12.3 (00:00) 23 6.67 (20:40) 4.44 (20:20) 0 0 0 0 0
24-08-2020 27.9 (18:00) 13.6 (07:00) 20.8 7.78 (13:10) 4.72 (01:20) 0 0 0 0 0
23-08-2020 25.9 (16:30) 14.3 (00:00) 20.1 9.17 (21:10) 6.11 (20:00) 0 0 0 0 0
22-08-2020 27.9 (14:30) 13.9 (00:00) 20.9 8.89 (19:30) 6.39 (22:40) 0 0 0 0 0
21-08-2020 34.2 (16:10) 20.3 (23:59) 27.3 13.61 (01:40) 9.72 (02:10) 0 0 0 0 0

Gráficas

Temp. máximas Temp. mínimas Temp. medias Precipitaciones Rachas de viento máximas Velocidades máximas media en intervalos de 10 minutos

Datos horarios

Fecha y hora oficial Temperatura (ºC) Velocidad del viento (km/h) Dirección del viento Racha (km/h) Dirección de racha Precipitación (mm) Presión (hPa) Tendencia (hPa) Humedad (%)
2020-09-19 23:00:00 15.4 2 Sudeste 8 Sudoeste 0 -- -- 84
2020-09-19 22:00:00 14.9 6 Sur 10 Sur 0 -- -- 86
2020-09-19 21:00:00 15.4 2 Sudeste 7 Sur 0 -- -- 84
2020-09-19 20:00:00 16.7 2 Sudeste 10 Sur 0 -- -- 84
2020-09-19 19:00:00 17.5 6 Sur 16 Sudoeste 0 -- -- 82
2020-09-19 18:00:00 17.2 8 Sur 24 Sudeste 0.6 -- -- 78
2020-09-19 17:00:00 18.8 16 Sur 35 Sudeste 0.4 -- -- 71
2020-09-19 16:00:00 20.2 19 Sudeste 38 Sur 0 -- -- 60
2020-09-19 15:00:00 20.6 20 Sudeste 34 Sur 0 -- -- 62
2020-09-19 14:00:00 19.2 19 Sudeste 30 Sudeste 0 -- -- 69
2020-09-19 13:00:00 18.3 14 Sudeste 22 Sudeste 0.2 -- -- 79
2020-09-19 12:00:00 16.5 13 Sur 20 Sur 0.6 -- -- 84
2020-09-19 11:00:00 17.8 13 Sur 26 Sudeste 0 -- -- 76
2020-09-19 10:00:00 16.8 18 Sur 31 Sudeste 0 -- -- 79
2020-09-19 09:00:00 16.4 18 Sur 31 Sudeste 0 -- -- 75
2020-09-19 08:00:00 15.9 9 Sudeste 23 Sur 0 -- -- 75
2020-09-19 07:00:00 17.3 15 Sur 25 Sudeste 0 -- -- 71
2020-09-19 06:00:00 16.9 12 Sudeste 27 Sudeste 0 -- -- 75
2020-09-19 05:00:00 16.9 10 Sur 22 Sur 0 -- -- 80
2020-09-19 04:00:00 16.9 11 Sudeste 28 Sudeste 0 -- -- 78
2020-09-19 03:00:00 17 19 Sudeste 32 Sur 0 -- -- 82
2020-09-19 02:00:00 17.3 13 Sudeste 26 Sudeste 0 -- -- 83
2020-09-19 01:00:00 17.9 11 Sudeste 30 Sudeste 0 -- -- 82
2020-09-19 00:00:00 18.1 12 Sudeste 32 Sudeste 0 -- -- 82
2020-09-18 23:00:00 18 16 Sur 32 Sudeste 0 -- -- 81
2020-09-18 22:00:00 17.9 14 Sudeste 24 Sur 0 -- -- 82
2020-09-18 21:00:00 17.9 10 Sudeste 17 Sur 0.2 -- -- 84
2020-09-18 20:00:00 17.3 6 Este 13 Este 0 -- -- 78
2020-09-18 19:00:00 17.5 10 Este 39 Este 1.4 -- -- 80
2020-09-18 18:00:00 17.7 19 Sudeste 31 Sudeste 2 -- -- 85
2020-09-18 17:00:00 21 18 Sudeste 51 Sudeste 0 -- -- 68
2020-09-18 16:00:00 23.6 33 Este 47 Este 0 -- -- 52
2020-09-18 15:00:00 22.9 21 Sudeste 48 Sudeste 0 -- -- 56
2020-09-18 14:00:00 22.7 31 Sudeste 49 Este 0 -- -- 58
2020-09-18 13:00:00 22 21 Sudeste 43 Sudeste 0 -- -- 59
2020-09-18 12:00:00 21.6 22 Sudeste 36 Sudeste 0 -- -- 60
2020-09-18 11:00:00 20.4 19 Sudeste 40 Este 0 -- -- 65
2020-09-18 10:00:00 20 19 Sudeste 35 Sudeste 0 -- -- 63
2020-09-18 09:00:00 20.3 20 Sudeste 48 Sudeste 0 -- -- 55
2020-09-18 08:00:00 20.2 24 Sudeste 39 Sudeste 0 -- -- 56
2020-09-18 07:00:00 19.5 26 Sudeste 41 Este 0 -- -- 59
2020-09-18 06:00:00 20.3 19 Sudeste 40 Sur 0 -- -- 56
2020-09-18 05:00:00 20.9 24 Sudeste 38 Sur 0 -- -- 53
2020-09-18 04:00:00 21.6 10 Sudeste 20 Sudeste 0 -- -- 49
2020-09-18 03:00:00 21.6 12 Sur 24 Sudeste 0 -- -- 52
2020-09-18 02:00:00 22 17 Sudeste 28 Sudeste 0 -- -- 50
2020-09-18 01:00:00 23 15 Sudeste 26 Sudeste 0 -- -- 45
2020-09-18 00:00:00 23.6 12 Sudeste 27 Sudeste 0 -- -- 43
2020-09-17 23:00:00 23.9 11 Sudeste 24 Este 0 -- -- 41
2020-09-17 22:00:00 24.5 13 Sudeste 30 Sudeste 0 -- -- 38
2020-09-17 21:00:00 25 14 Este 25 Este 0 -- -- 36
2020-09-17 20:00:00 25.9 16 Este 36 Este 0 -- -- 33
2020-09-17 19:00:00 26.8 13 Sudeste 31 Este 0 -- -- 34
2020-09-17 18:00:00 27.3 19 Sudeste 32 Este 0 -- -- 35
2020-09-17 17:00:00 28 23 Sudeste 33 Sur 0 -- -- 34
2020-09-17 16:00:00 28.3 19 Sudeste 36 Sudeste 0 -- -- 31
2020-09-17 15:00:00 28.5 24 Sudeste 39 Este 0 -- -- 32
2020-09-17 14:00:00 29.1 14 Sudeste 32 Este 0 -- -- 32
2020-09-17 13:00:00 27.1 23 Este 37 Este 0 -- -- 37
2020-09-17 12:00:00 25.2 11 Norte 17 Norte 0 -- -- 47
2020-09-17 11:00:00 23.7 5 Norte 8 Nordeste 0 -- -- 50
2020-09-17 10:00:00 20.2 0 Calma 6 Norte 0 -- -- 60
2020-09-17 09:00:00 20.5 4 Sur 10 Sudoeste 0 -- -- 60
2020-09-17 08:00:00 19.9 0 Calma 5 Noroeste 0 -- -- 62
2020-09-17 07:00:00 20.1 3 Oeste 8 Oeste 0 -- -- 61
2020-09-17 06:00:00 19.8 3 Noroeste 5 Norte 0 -- -- 62
2020-09-17 05:00:00 19.8 3 Nordeste 9 Nordeste 0 -- -- 63
2020-09-17 04:00:00 19.2 3 Noroeste 7 Sudoeste 0 -- -- 62
2020-09-17 03:00:00 19.1 0 Calma 6 Sur 0 -- -- 60
2020-09-17 02:00:00 20.5 2 Oeste 5 Noroeste 0 -- -- 55
2020-09-17 01:00:00 20.3 3 Sudoeste 5 Sudoeste 0 -- -- 52
2020-09-17 00:00:00 20.5 2 Sur 10 Sur 0 -- -- 49
2020-09-16 23:00:00 21 4 Sur 10 Sur 0 -- -- 47
2020-09-16 22:00:00 21.4 8 Sur 12 Sudoeste 0 -- -- 46
2020-09-16 21:00:00 22.5 10 Sur 12 Sur 0 -- -- 40
2020-09-16 20:00:00 25.3 8 Sur 9 Sudoeste 0 -- -- 33
2020-09-16 19:00:00 29.6 2 Sudeste 14 Oeste 0 -- -- 26
2020-09-16 18:00:00 29.9 3 Norte 18 Sudoeste 0 -- -- 25
2020-09-16 17:00:00 30.6 9 Oeste 17 Sudoeste 0 -- -- 24
2020-09-16 16:00:00 31 9 Sur 18 Sudoeste 0 -- -- 25
2020-09-16 15:00:00 30.5 5 Sur 23 Sur 0 -- -- 32
2020-09-16 14:00:00 28.9 9 Norte 14 Norte 0 -- -- 36
2020-09-16 13:00:00 28.3 7 Norte 10 Nordeste 0 -- -- 37
2020-09-16 12:00:00 25.8 6 Norte 9 Nordeste 0 -- -- 42
2020-09-16 11:00:00 24.3 3 Norte 6 Nordeste 0 -- -- 45
2020-09-16 10:00:00 20.8 2 Norte 4 Norte 0 -- -- 56
2020-09-16 09:00:00 17.4 2 Noroeste 4 Sur 0 -- -- 66
2020-09-16 08:00:00 15.3 2 Sur 4 Sur 0 -- -- 73
2020-09-16 07:00:00 16.4 0 Calma 4 Sur 0 -- -- 68
2020-09-16 06:00:00 16.6 2 Sur 7 Sur 0 -- -- 68
2020-09-16 05:00:00 16.9 2 Sur 4 Sur 0 -- -- 66
2020-09-16 04:00:00 17.5 3 Sudoeste 6 Sudoeste 0 -- -- 63
2020-09-16 03:00:00 18.4 3 Sur 8 Sudoeste 0 -- -- 61
2020-09-16 02:00:00 20.2 3 Sur 5 Sur 0 -- -- 56
2020-09-16 01:00:00 22.6 5 Norte 12 Sudeste 0 -- -- 46
2020-09-16 00:00:00 23.6 2 Norte 12 Sudeste 0 -- -- 44
2020-09-15 23:00:00 23 8 Sur 12 Sur 0 -- -- 44
2020-09-15 22:00:00 23.3 9 Sur 12 Sur 0 -- -- 42
2020-09-15 21:00:00 23.3 11 Sur 13 Sudoeste 0 -- -- 43
2020-09-15 20:00:00 25 8 Sur 10 Sudoeste 0 -- -- 39
2020-09-15 19:00:00 27.7 0 Calma 16 Sudeste 0 -- -- 33
2020-09-15 18:00:00 28.9 6 Sur 20 Sudoeste 0 -- -- 33
2020-09-15 17:00:00 29 9 Sur 23 Sudoeste 0 -- -- 33
2020-09-15 16:00:00 29.1 8 Sur 27 Sur 0 -- -- 32
2020-09-15 15:00:00 28.8 18 Sudoeste 23 Sur 0 -- -- 32
2020-09-15 14:00:00 28.8 14 Sudeste 28 Sudeste 0 -- -- 34
2020-09-15 13:00:00 27.2 10 Sur 18 Este 0 -- -- 37
2020-09-15 12:00:00 26.4 10 Sudeste 24 Sudeste 0 -- -- 39
2020-09-15 11:00:00 24.5 8 Sudeste 12 Sur 0 -- -- 46
2020-09-15 10:00:00 21.9 3 Nordeste 4 Nordeste 0 -- -- 62
2020-09-15 09:00:00 17.1 3 Noroeste 8 Sur 0 -- -- 75
2020-09-15 08:00:00 16.6 4 Sur 9 Sur 0 -- -- 75
2020-09-15 07:00:00 17.9 7 Oeste 15 Este 0 -- -- 72
2020-09-15 06:00:00 18.3 2 Norte 7 Nordeste 0.2 -- -- 72
2020-09-15 05:00:00 19.2 3 Sur 6 Este 0.4 -- -- 65
2020-09-15 04:00:00 21.5 3 Oeste 24 Este 0 -- -- 48
2020-09-15 03:00:00 20.9 6 Noroeste 27 Sudeste 0 -- -- 52
2020-09-15 02:00:00 23 6 Noroeste 34 Sudeste 0 -- -- 41
2020-09-15 01:00:00 23.7 18 Sudeste 35 Sudeste 0 -- -- 37
2020-09-15 00:00:00 24.3 22 Sudeste 30 Sudeste 0 -- -- 39
2020-09-14 23:00:00 25.2 18 Sur 27 Sudeste 0 -- -- 36
2020-09-14 22:00:00 25.1 11 Sudeste 21 Sur 0 -- -- 33
2020-09-14 21:00:00 25.5 5 Sudeste 14 Sudeste 0 -- -- 35
2020-09-14 20:00:00 26.8 9 Sudeste 18 Sudeste 0 -- -- 30
2020-09-14 19:00:00 28.1 7 Sudeste 16 Este 0 -- -- 28
2020-09-14 18:00:00 29.5 10 Sur 24 Este 0 -- -- 24
2020-09-14 17:00:00 30.3 17 Sudeste 27 Sudeste 0 -- -- 24
2020-09-14 16:00:00 30.5 19 Sur 30 Este 0 -- -- 25
2020-09-14 15:00:00 30.5 20 Sudeste 33 Sur 0 -- -- 25
2020-09-14 14:00:00 30.4 18 Sudeste 33 Este 0 -- -- 26
2020-09-14 13:00:00 28.7 22 Sudeste 36 Este 0 -- -- 29
2020-09-14 12:00:00 28.3 17 Sudeste 31 Este 0 -- -- 31
2020-09-14 11:00:00 26.8 14 Sudeste 22 Sur 0 -- -- 34
2020-09-14 10:00:00 23.9 4 Norte 6 Norte 0 -- -- 40
2020-09-14 09:00:00 19.4 0 Calma 5 Sur 0 -- -- 52
2020-09-14 08:00:00 16.8 5 Sur 8 Sudoeste 0 -- -- 57
2020-09-14 07:00:00 17.6 5 Sur 8 Sur 0 -- -- 54
2020-09-14 06:00:00 19.2 5 Sudoeste 10 Sur 0 -- -- 49
2020-09-14 05:00:00 19.7 4 Sur 7 Sudeste 0 -- -- 47
2020-09-14 04:00:00 20.1 3 Sur 5 Sur 0 -- -- 47
2020-09-14 03:00:00 22.1 4 Nordeste 14 Nordeste 0 -- -- 40
2020-09-14 02:00:00 23.7 8 Sudeste 25 Sur 0 -- -- 36
2020-09-14 01:00:00 24.1 18 Sudeste 31 Sur 0 -- -- 35
2020-09-14 00:00:00 25 18 Sudeste 36 Sur 0 -- -- 34
2020-09-13 23:00:00 26.5 21 Sudeste 32 Sudeste 0 -- -- 26
2020-09-13 22:00:00 26.2 18 Sur 28 Sudeste 0 -- -- 30
2020-09-13 21:00:00 26.7 15 Sudeste 22 Sudeste 0 -- -- 31
2020-09-13 20:00:00 27.8 10 Sudeste 19 Sudeste 0 -- -- 29
2020-09-13 19:00:00 29.6 10 Sudeste 23 Este 0 -- -- 25
2020-09-13 18:00:00 30.8 9 Sudeste 24 Sudeste 0 -- -- 24
2020-09-13 17:00:00 31.4 11 Sudeste 31 Sudeste 0 -- -- 25
2020-09-13 16:00:00 31.2 14 Sudeste 23 Sur 0 -- -- 26
2020-09-13 15:00:00 30.5 17 Sudeste 28 Este 0 -- -- 28
2020-09-13 14:00:00 30 18 Sudeste 28 Sudeste 0 -- -- 28
2020-09-13 13:00:00 29.3 12 Sur 25 Sudoeste 0 -- -- 30
2020-09-13 12:00:00 27.9 18 Sudeste 28 Sudeste 0 -- -- 33
2020-09-13 11:00:00 23.2 5 Norte 8 Norte 0 -- -- 48
2020-09-13 10:00:00 20.9 3 Norte 6 Norte 0 -- -- 54
2020-09-13 09:00:00 16.6 0 Calma 3 Sur 0 -- -- 74
2020-09-13 08:00:00 13.5 0 Calma 5 Sur 0 -- -- 81
2020-09-13 07:00:00 13.2 3 Sur 7 Sudoeste 0 -- -- 80
2020-09-13 06:00:00 13.5 0 Calma 8 Sudoeste 0 -- -- 82
2020-09-13 05:00:00 14 2 Oeste -- -- 0 -- -- 83
2020-09-13 04:00:00 14.2 5 Sur 7 Sudoeste 0 -- -- 78
2020-09-13 03:00:00 15.1 3 Sur 9 Sur 0 -- -- 79
2020-09-13 02:00:00 15.8 4 Sur 11 Sudoeste 0 -- -- 77
2020-09-13 01:00:00 16.4 6 Sur 10 Sur 0 -- -- 75
2020-09-13 00:00:00 17.2 4 Sur 8 Sudoeste 0 -- -- 71
2020-09-12 23:00:00 18.9 5 Sur 6 Sur 0 -- -- 65
2020-09-12 22:00:00 22 0 Calma 15 Noroeste 0 -- -- 56
2020-09-12 21:00:00 23.6 8 Noroeste 13 Noroeste 0 -- -- 51
2020-09-12 20:00:00 25 6 Oeste 15 Noroeste 0 -- -- 45
2020-09-12 19:00:00 28 5 Sudoeste 15 Sudoeste 0 -- -- 18
2020-09-12 18:00:00 29.2 6 Sudoeste 18 Sur 0 -- -- 18
2020-09-12 17:00:00 29.4 6 Sudoeste 17 Sudoeste 0 -- -- 19
2020-09-12 16:00:00 29.5 6 Sudeste 21 Sudeste 0 -- -- 20
2020-09-12 15:00:00 28.3 5 Noroeste 14 Sur 0 -- -- 29
2020-09-12 14:00:00 26.4 12 Oeste 16 Noroeste 0 -- -- 37
2020-09-12 13:00:00 25.4 10 Norte 18 Nordeste 0 -- -- 44
2020-09-12 12:00:00 24 6 Nordeste 9 Nordeste 0 -- -- 48
2020-09-12 11:00:00 21 6 Norte 10 Nordeste 0 -- -- 61
2020-09-12 10:00:00 19.4 2 Nordeste 4 Norte 0 -- -- 68
2020-09-12 09:00:00 15.1 -- -- -- -- 0 -- -- 88
2020-09-12 08:00:00 12.3 4 Sur 8 Sudoeste 0 -- -- 93
2020-09-12 07:00:00 12.5 3 Sudoeste 5 Sudoeste 0 -- -- 91
2020-09-12 06:00:00 13 4 Sur 9 Sur 0 -- -- 89
2020-09-12 05:00:00 13.5 6 Sur 9 Sur 0 -- -- 89
2020-09-12 04:00:00 14.5 4 Sur 10 Sur 0 -- -- 85
2020-09-12 03:00:00 14.7 4 Sur 6 Sur 0 -- -- 86
2020-09-12 02:00:00 15.7 3 Sur -- -- 0 -- -- 82
2020-09-12 01:00:00 15.9 3 Noroeste 7 Noroeste 0 -- -- 82
2020-09-12 00:00:00 16.1 2 Sudoeste -- -- 0 -- -- 76
2020-09-11 23:00:00 17.9 2 Sur 5 Sudoeste 0 -- -- 68
2020-09-11 22:00:00 19.8 0 Calma 6 Sudoeste 0 -- -- 62
2020-09-11 21:00:00 22.1 4 Oeste 12 Noroeste 0 -- -- 53
2020-09-11 20:00:00 24.2 10 Noroeste 21 Noroeste 0 -- -- 48
2020-09-11 19:00:00 26 15 Noroeste 26 Noroeste 0 -- -- 44
2020-09-11 18:00:00 28 13 Noroeste 19 Noroeste 0 -- -- 38
2020-09-11 17:00:00 28.7 8 Noroeste 18 Noroeste 0 -- -- 27
2020-09-11 16:00:00 28.7 11 Noroeste 19 Norte 0 -- -- 28
2020-09-11 15:00:00 28.3 8 Norte 14 Noroeste 0 -- -- 32
2020-09-11 14:00:00 26.9 8 Norte 17 Norte 0 -- -- 36
2020-09-11 13:00:00 25.9 6 Norte 11 Nordeste 0 -- -- 38
2020-09-11 12:00:00 23.4 5 Nordeste 11 Nordeste 0 -- -- 48
2020-09-11 11:00:00 21.2 5 Norte 9 Nordeste 0 -- -- 56
2020-09-11 10:00:00 19.2 3 Norte 6 Norte 0 -- -- 64
2020-09-11 09:00:00 16.4 0 Calma 4 Sur 0 -- -- 78
2020-09-11 08:00:00 12.6 0 Calma 4 Sur 0 -- -- 88
2020-09-11 07:00:00 13 3 Sur 4 Sur 0 -- -- 86
2020-09-11 06:00:00 13.4 2 Sur 3 Sudoeste 0 -- -- 83
2020-09-11 05:00:00 14.8 0 Calma 4 Oeste 0 -- -- 79
2020-09-11 04:00:00 15.1 2 Sudoeste 7 Oeste 0 -- -- 75
2020-09-11 03:00:00 16 3 Oeste 5 Sudoeste 0 -- -- 73
2020-09-11 02:00:00 16.6 4 Oeste 9 Noroeste 0 -- -- 69
2020-09-11 01:00:00 17.4 7 Oeste 14 Oeste 0 -- -- 66
2020-09-11 00:00:00 18.2 12 Noroeste 22 Noroeste 0 -- -- 63
2020-09-10 23:00:00 18.9 15 Noroeste 23 Noroeste 0 -- -- 62
2020-09-10 22:00:00 19.7 14 Noroeste 26 Noroeste 0 -- -- 58
2020-09-10 21:00:00 20.9 15 Noroeste 24 Norte 0 -- -- 52
2020-09-10 20:00:00 22.6 15 Noroeste 31 Noroeste 0 -- -- 44
2020-09-10 19:00:00 24.4 18 Noroeste 30 Noroeste 0 -- -- 38
2020-09-10 18:00:00 25.7 24 Noroeste 32 Noroeste 0 -- -- 36
2020-09-10 17:00:00 27.1 20 Noroeste 38 Noroeste 0 -- -- 33
2020-09-10 16:00:00 27.8 22 Noroeste 32 Noroeste 0 -- -- 28
2020-09-10 15:00:00 28.2 19 Norte 26 Norte 0 -- -- 27
2020-09-10 14:00:00 28 19 Norte 34 Noroeste 0 -- -- 28
2020-09-10 13:00:00 27 17 Noroeste 25 Noroeste 0 -- -- 30
2020-09-10 12:00:00 24.7 19 Noroeste 28 Noroeste 0 -- -- 35
2020-09-10 11:00:00 22.7 21 Noroeste 31 Noroeste 0 -- -- 38
2020-09-10 10:00:00 20.6 14 Noroeste 19 Norte 0 -- -- 45
2020-09-10 09:00:00 17.3 3 Norte 7 Este 0 -- -- 58
2020-09-10 08:00:00 15.1 5 Nordeste 19 Noroeste 0 -- -- 64
2020-09-10 07:00:00 17.8 10 Noroeste 19 Noroeste 0 -- -- 55
2020-09-10 06:00:00 18 13 Noroeste 22 Noroeste 0 -- -- 54
2020-09-10 05:00:00 17.4 11 Noroeste 15 Oeste 0 -- -- 54
2020-09-10 04:00:00 17.5 5 Oeste 12 Oeste 0 -- -- 54
2020-09-10 03:00:00 17.3 0 Calma -- -- 0 -- -- 55
2020-09-10 02:00:00 17.9 3 Oeste 10 Oeste 0 -- -- 52
2020-09-10 01:00:00 18.1 6 Oeste 12 Oeste 0 -- -- 53
2020-09-10 00:00:00 18.5 9 Noroeste 20 Oeste 0 -- -- 54
2020-09-09 23:00:00 19.5 10 Oeste 22 Norte 0 -- -- 57
2020-09-09 22:00:00 21.8 17 Noroeste 24 Noroeste 0 -- -- 44
2020-09-09 21:00:00 23 8 Norte 16 Norte 0 -- -- 39
2020-09-09 20:00:00 24.5 14 Norte 30 Norte 0 -- -- 37
2020-09-09 19:00:00 26.8 10 Noroeste 18 Noroeste 0 -- -- 34
2020-09-09 18:00:00 27.2 11 Norte 25 Norte 0 -- -- 34
2020-09-09 17:00:00 27.2 7 Sudoeste 19 Sudoeste 0 -- -- 32
2020-09-09 16:00:00 27.9 14 Sur 21 Oeste 0 -- -- 32
2020-09-09 15:00:00 27 13 Sudoeste 21 Sudoeste 0 -- -- 33
2020-09-09 14:00:00 25.6 9 Oeste 18 Noroeste 0 -- -- 36
2020-09-09 13:00:00 24.5 13 Noroeste 20 Noroeste 0 -- -- 35
2020-09-09 12:00:00 23.5 6 Norte 9 Nordeste 0 -- -- 39
2020-09-09 11:00:00 18.9 4 Noroeste 9 Norte 0 -- -- 50
2020-09-09 10:00:00 16.3 3 Nordeste 5 Nordeste 0 -- -- 58
2020-09-09 09:00:00 11.5 2 Noroeste 8 Sur 0 -- -- 77
2020-09-09 08:00:00 10.8 0 Calma 10 Sur 0 -- -- 77
2020-09-09 07:00:00 11.2 5 Sur 8 Sur 0 -- -- 76
2020-09-09 06:00:00 11.4 4 Sur 7 Sudoeste 0 -- -- 74
2020-09-09 05:00:00 12.2 2 Sur 8 Sur 0 -- -- 70
2020-09-09 04:00:00 12.6 3 Sur -- -- 0 -- -- 68
2020-09-09 03:00:00 13.5 4 Sur 7 Sudoeste 0 -- -- 64
2020-09-09 02:00:00 14.2 3 Sur 9 Sur 0 -- -- 61
2020-09-09 01:00:00 14.6 4 Sur 11 Sur 0 -- -- 59
2020-09-09 00:00:00 15 4 Sur 7 Sudoeste 0 -- -- 57
2020-09-08 23:00:00 16 6 Sur 11 Sur 0 -- -- 53
2020-09-08 22:00:00 17.1 6 Sur 12 Sudoeste 0 -- -- 51
2020-09-08 21:00:00 19.4 4 Sur 9 Noroeste 0 -- -- 44
2020-09-08 20:00:00 22.6 10 Noroeste 15 Sur 0 -- -- 38
2020-09-08 19:00:00 24.8 10 Sudoeste 20 Sudoeste 0 -- -- 25
2020-09-08 18:00:00 25.7 12 Sudoeste 22 Sur 0 -- -- 25
2020-09-08 17:00:00 26.1 10 Sudoeste 25 Noroeste 0 -- -- 23
2020-09-08 16:00:00 25.9 9 Oeste 16 Sudeste 0 -- -- 22
2020-09-08 15:00:00 24.6 6 Noroeste 14 Noroeste 0 -- -- 24
2020-09-08 14:00:00 23.5 6 Noroeste 18 Norte 0 -- -- 25
2020-09-08 13:00:00 22.1 9 Norte 16 Norte 0 -- -- 28
2020-09-08 12:00:00 20.8 5 Norte 8 Nordeste 0 -- -- 34
2020-09-08 11:00:00 17.6 4 Norte 8 Nordeste 0 -- -- 44
2020-09-08 10:00:00 15.7 4 Norte 6 Norte 0 -- -- 55
2020-09-08 09:00:00 12.1 0 Calma 4 Sur 0 -- -- 69
2020-09-08 08:00:00 8.4 2 Sur 10 Sudoeste 0 -- -- 81
2020-09-08 07:00:00 8.4 3 Sur 7 Sur 0 -- -- 79
2020-09-08 06:00:00 9.8 3 Sur 6 Sur 0 -- -- 75
2020-09-08 05:00:00 11.8 2 Sudoeste 9 Oeste 0 -- -- 69
2020-09-08 04:00:00 11.8 5 Oeste 10 Oeste 0 -- -- 69
2020-09-08 03:00:00 12.8 3 Oeste 10 Noroeste 0 -- -- 64
2020-09-08 02:00:00 13.7 5 Noroeste 19 Noroeste 0 -- -- 61
2020-09-08 01:00:00 14.3 10 Noroeste 18 Noroeste 0 -- -- 57
2020-09-08 00:00:00 14.9 13 Noroeste 17 Norte 0 -- -- 52
2020-09-07 23:00:00 15.4 14 Noroeste 28 Noroeste 0 -- -- 47
2020-09-07 22:00:00 15.5 14 Noroeste 20 Noroeste 0 -- -- 46
2020-09-07 21:00:00 16.1 11 Noroeste 28 Noroeste 0 -- -- 42
2020-09-07 20:00:00 17.4 15 Noroeste 25 Norte 0 -- -- 39
2020-09-07 19:00:00 18.9 17 Noroeste 31 Noroeste 0 -- -- 36
2020-09-07 18:00:00 20.6 19 Noroeste 32 Noroeste 0 -- -- 32
2020-09-07 17:00:00 21 20 Noroeste 39 Norte 0 -- -- 32
2020-09-07 16:00:00 21 21 Noroeste 41 Noroeste 0 -- -- 32
2020-09-07 15:00:00 20.9 18 Noroeste 37 Noroeste 0 -- -- 33
2020-09-07 14:00:00 20.3 24 Noroeste 39 Noroeste 0 -- -- 34
2020-09-07 13:00:00 19.2 26 Norte 39 Norte 0 -- -- 36
2020-09-07 12:00:00 18.7 20 Norte 37 Noroeste 0 -- -- 37
2020-09-07 11:00:00 17.2 24 Norte 40 Noroeste 0 -- -- 43
2020-09-07 10:00:00 14.4 27 Noroeste 37 Noroeste 0 -- -- 55
2020-09-07 09:00:00 13.5 11 Oeste 40 Noroeste 0 -- -- 56
2020-09-07 08:00:00 12.4 17 Noroeste 40 Noroeste 0 -- -- 63
2020-09-07 07:00:00 11.8 13 Noroeste 39 Noroeste 0 -- -- 68
2020-09-07 06:00:00 12.4 25 Noroeste 35 Noroeste 0 -- -- 64
2020-09-07 05:00:00 12.5 22 Noroeste 35 Noroeste 0 -- -- 61
2020-09-07 04:00:00 13.2 24 Noroeste 36 Noroeste 0 -- -- 60
2020-09-07 03:00:00 13.2 18 Noroeste 28 Noroeste 0 -- -- 63
2020-09-07 02:00:00 13.7 24 Noroeste 43 Noroeste 0 -- -- 63
2020-09-07 01:00:00 13.6 22 Noroeste 36 Norte 0 -- -- 63
2020-09-07 00:00:00 14.1 26 Noroeste 45 Noroeste 0 -- -- 66
2020-09-06 23:00:00 14.4 24 Noroeste 42 Noroeste 0 -- -- 65
2020-09-06 22:00:00 14.5 35 Noroeste 49 Noroeste 0 -- -- 64
2020-09-06 21:00:00 15.4 33 Noroeste 44 Noroeste 0 -- -- 61
2020-09-06 20:00:00 16.7 24 Noroeste 42 Noroeste 0 -- -- 57
2020-09-06 19:00:00 18.6 26 Noroeste 47 Noroeste 0 -- -- 50
2020-09-06 18:00:00 20.2 21 Noroeste 40 Noroeste 0 -- -- 45
2020-09-06 17:00:00 20.7 29 Noroeste 39 Noroeste 0 -- -- 42
2020-09-06 16:00:00 21.1 23 Noroeste 37 Noroeste 0 -- -- 42
2020-09-06 15:00:00 20.3 20 Noroeste 33 Oeste 0 -- -- 46
2020-09-06 14:00:00 19.7 26 Noroeste 33 Noroeste 0 -- -- 49
2020-09-06 13:00:00 19.4 19 Norte 36 Noroeste 0 -- -- 53
2020-09-06 12:00:00 18.6 21 Noroeste 35 Norte 0 -- -- 57
2020-09-06 11:00:00 17.6 21 Noroeste 32 Oeste 0 -- -- 61
2020-09-06 10:00:00 16.8 18 Noroeste 27 Noroeste 0 -- -- 67
2020-09-06 09:00:00 15 11 Noroeste 28 Noroeste 0 -- -- 72
2020-09-06 08:00:00 14.4 16 Noroeste 21 Noroeste 0 -- -- 76
2020-09-06 07:00:00 14.3 12 Noroeste 25 Noroeste 0 -- -- 76
2020-09-06 06:00:00 14.4 14 Noroeste 21 Noroeste 0 -- -- 80
2020-09-06 05:00:00 14.8 14 Noroeste 21 Noroeste 0 -- -- 78
2020-09-06 04:00:00 14.9 11 Noroeste 22 Noroeste 0 -- -- 77
2020-09-06 03:00:00 15.1 13 Noroeste 23 Noroeste 0 -- -- 77
2020-09-06 02:00:00 15.5 17 Noroeste 26 Noroeste 0 -- -- 75
2020-09-06 01:00:00 16 16 Noroeste 26 Noroeste 0 -- -- 75
2020-09-06 00:00:00 16.5 18 Noroeste 29 Noroeste 0 -- -- 75
2020-09-05 23:00:00 16.9 19 Noroeste 27 Noroeste 0 -- -- 73
2020-09-05 22:00:00 17.5 18 Noroeste 26 Noroeste 0 -- -- 73
2020-09-05 21:00:00 17.8 19 Noroeste 30 Noroeste 0 -- -- 70
2020-09-05 20:00:00 19.6 16 Noroeste 27 Noroeste 0 -- -- 65
2020-09-05 19:00:00 22 16 Noroeste 29 Noroeste 0 -- -- 57
2020-09-05 18:00:00 23.8 17 Noroeste 29 Noroeste 0 -- -- 51
2020-09-05 17:00:00 25.2 17 Noroeste 27 Noroeste 0 -- -- 48
2020-09-05 16:00:00 25.9 14 Norte 24 Norte 0 -- -- 46
2020-09-05 15:00:00 26.3 14 Noroeste 28 Noroeste 0 -- -- 46
2020-09-05 14:00:00 26.3 12 Noroeste 22 Norte 0 -- -- 45
2020-09-05 13:00:00 24.7 14 Noroeste 19 Noroeste 0 -- -- 49
2020-09-05 12:00:00 23.1 10 Noroeste 15 Noroeste 0 -- -- 52
2020-09-05 11:00:00 20.6 9 Noroeste 20 Noroeste 0 -- -- 58
2020-09-05 10:00:00 19.1 9 Noroeste 18 Oeste 0 -- -- 59
2020-09-05 09:00:00 18.3 7 Oeste 12 Oeste 0 -- -- 54
2020-09-05 08:00:00 15.1 2 Sudoeste 6 Sur 0 -- -- 65
2020-09-05 07:00:00 14.8 6 Sur 9 Sudoeste 0 -- -- 68
2020-09-05 06:00:00 15.6 2 Sudoeste 6 Sur 0 -- -- 67
2020-09-05 05:00:00 16.6 0 Calma 4 Sur 0 -- -- 63
2020-09-05 04:00:00 18.4 0 Calma 3 Noroeste 0 -- -- 59
2020-09-05 03:00:00 20 4 Sur -- -- 0 -- -- 58
2020-09-05 02:00:00 20.7 6 Sur 9 Sur 0 -- -- 51
2020-09-05 01:00:00 19.9 3 Sur 6 Sur 0 -- -- 43
2020-09-05 00:00:00 21.6 2 Sur 6 Sudoeste 0 -- -- 41
2020-09-04 23:00:00 24 5 Sudeste 16 Sur 0 -- -- 34
2020-09-04 22:00:00 24.8 12 Sur 17 Sur 0 -- -- 30
2020-09-04 21:00:00 24.9 10 Sur 16 Sur 0 -- -- 28
2020-09-04 20:00:00 27.8 6 Sur 13 Sur 0 -- -- 23
2020-09-04 19:00:00 29.9 7 Sudeste 16 Sudeste 0 -- -- 19
2020-09-04 18:00:00 30.6 14 Sudeste 24 Sudeste 0 -- -- 20
2020-09-04 17:00:00 31.4 10 Sur 21 Sudoeste 0 -- -- 20
2020-09-04 16:00:00 31 13 Sur 25 Sur 0 -- -- 21
2020-09-04 15:00:00 30.8 12 Sur 24 Este 0 -- -- 25
2020-09-04 14:00:00 30 10 Sudeste 25 Sudeste 0 -- -- 26
2020-09-04 13:00:00 28.8 7 Sudeste 13 Norte 0 -- -- 30
2020-09-04 12:00:00 25.5 9 Norte 11 Norte 0 -- -- 37
2020-09-04 11:00:00 23.1 6 Norte 9 Norte 0 -- -- 40
2020-09-04 10:00:00 20.6 3 Nordeste 6 Nordeste 0 -- -- 48
2020-09-04 09:00:00 16.8 0 Calma -- -- 0 -- -- 62
2020-09-04 08:00:00 13.5 0 Calma 3 Sur 0 -- -- 72
2020-09-04 07:00:00 13.3 0 Calma 4 Sudoeste 0 -- -- 71
2020-09-04 06:00:00 14 -- -- -- -- 0 -- -- 69
2020-09-04 05:00:00 15 2 Sur 5 Sur 0 -- -- 64
2020-09-04 04:00:00 16.1 2 Oeste 7 Este 0 -- -- 58
2020-09-04 03:00:00 16.8 3 Sur 6 Sur 0 -- -- 52
2020-09-04 02:00:00 17.4 2 Sudoeste 6 Sur 0 -- -- 50
2020-09-04 01:00:00 17.7 3 Sur 8 Sudoeste 0 -- -- 48
2020-09-04 00:00:00 21.2 4 Sudoeste 8 Sur 0 -- -- 35
2020-09-03 23:00:00 21 6 Sur 13 Sur 0 -- -- 33
2020-09-03 22:00:00 21.7 12 Sur 14 Sur 0 -- -- 29
2020-09-03 21:00:00 21 9 Sur 13 Sudoeste 0 -- -- 31
2020-09-03 20:00:00 25.1 10 Sur 12 Sur 0 -- -- 24
2020-09-03 19:00:00 28.9 6 Sur 17 Sur 0 -- -- 20
2020-09-03 18:00:00 29.7 9 Sudoeste 15 Sur 0 -- -- 19
2020-09-03 17:00:00 29.4 8 Sudoeste 16 Sur 0 -- -- 19
2020-09-03 16:00:00 28.9 8 Sudoeste 15 Sur 0 -- -- 22
2020-09-03 15:00:00 27.5 12 Sudoeste 25 Sur 0 -- -- 25
2020-09-03 14:00:00 26.1 8 Sur 15 Nordeste 0 -- -- 32
2020-09-03 13:00:00 23.7 12 Norte 15 Noroeste 0 -- -- 41
2020-09-03 12:00:00 21.5 9 Norte 12 Nordeste 0 -- -- 44
2020-09-03 11:00:00 19.3 4 Norte 6 Noroeste 0 -- -- 50
2020-09-03 10:00:00 16 5 Norte 7 Norte 0 -- -- 58
2020-09-03 09:00:00 13.6 3 Norte 6 Sur 0 -- -- 66
2020-09-03 08:00:00 8.9 4 Sur 9 Sudoeste 0 -- -- 84
2020-09-03 07:00:00 8.8 0 Calma 8 Sur 0 -- -- 83
2020-09-03 06:00:00 9.1 6 Sur 10 Sudoeste 0 -- -- 84
2020-09-03 05:00:00 9.5 2 Sur 10 Sur 0 -- -- 79
2020-09-03 04:00:00 10.2 4 Sur 6 Sur 0 -- -- 77
2020-09-03 03:00:00 12.1 3 Oeste 5 Oeste 0 -- -- 71
2020-09-03 02:00:00 11.4 4 Sur 8 Oeste 0 -- -- 70
2020-09-03 01:00:00 12.5 0 Calma -- -- 0 -- -- 67
2020-09-03 00:00:00 14.3 2 Noroeste 6 Noroeste 0 -- -- 60
2020-09-02 23:00:00 16.5 5 Oeste 22 Oeste 0 -- -- 53
2020-09-02 22:00:00 17.4 11 Noroeste 19 Noroeste 0 -- -- 47
2020-09-02 21:00:00 18.4 8 Oeste 19 Noroeste 0 -- -- 44
2020-09-02 20:00:00 20.4 12 Noroeste 31 Noroeste 0 -- -- 40
2020-09-02 19:00:00 22.1 20 Noroeste 34 Noroeste 0 -- -- 35
2020-09-02 18:00:00 24 18 Noroeste 27 Noroeste 0 -- -- 31
2020-09-02 17:00:00 24.5 10 Noroeste 22 Norte 0 -- -- 31
2020-09-02 16:00:00 24.3 12 Noroeste 22 Noroeste 0 -- -- 30
2020-09-02 15:00:00 24.2 11 Noroeste 20 Noroeste 0 -- -- 29
2020-09-02 14:00:00 23.6 11 Norte 19 Noroeste 0 -- -- 31
2020-09-02 13:00:00 22.5 6 Norte 18 Noroeste 0 -- -- 35
2020-09-02 12:00:00 20.8 10 Oeste 17 Norte 0 -- -- 38
2020-09-02 11:00:00 18.8 10 Noroeste 18 Noroeste 0 -- -- 46
2020-09-02 10:00:00 16.4 10 Noroeste 17 Noroeste 0 -- -- 53
2020-09-02 09:00:00 14.7 11 Noroeste 15 Noroeste 0 -- -- 59
2020-09-02 08:00:00 13.4 8 Noroeste 16 Noroeste 0 -- -- 65
2020-09-02 07:00:00 13.6 11 Noroeste 19 Noroeste 0 -- -- 64
2020-09-02 06:00:00 13.9 14 Noroeste 21 Noroeste 0 -- -- 64
2020-09-02 05:00:00 14.1 14 Noroeste 23 Noroeste 0 -- -- 63
2020-09-02 04:00:00 14.6 19 Noroeste 26 Noroeste 0 -- -- 65
2020-09-02 03:00:00 14.7 17 Noroeste 26 Noroeste 0 -- -- 65
2020-09-02 02:00:00 15.1 16 Noroeste 26 Noroeste 0 -- -- 64
2020-09-02 01:00:00 15.5 15 Noroeste 28 Noroeste 0 -- -- 66
2020-09-02 00:00:00 16 17 Noroeste 26 Noroeste 0 -- -- 67
2020-09-01 23:00:00 16.6 15 Noroeste 30 Noroeste 0 -- -- 66
2020-09-01 22:00:00 17.6 19 Noroeste 31 Noroeste 0 -- -- 60
2020-09-01 21:00:00 18.5 17 Noroeste 28 Noroeste 0 -- -- 45
2020-09-01 20:00:00 19.6 15 Noroeste 32 Noroeste 0 -- -- 40
2020-09-01 19:00:00 21.7 16 Noroeste 31 Noroeste 0 -- -- 38
2020-09-01 18:00:00 23.9 14 Noroeste 29 Norte 0 -- -- 31
2020-09-01 17:00:00 24.6 13 Noroeste 30 Norte 0 -- -- 24
2020-09-01 16:00:00 24.8 11 Noroeste 20 Noroeste 0 -- -- 24
2020-09-01 15:00:00 23.9 12 Oeste 28 Noroeste 0 -- -- 27
2020-09-01 14:00:00 23.3 10 Noroeste 22 Noroeste 0 -- -- 23
2020-09-01 13:00:00 22.2 8 Norte 11 Norte 0 -- -- 32
2020-09-01 12:00:00 19 4 Norte 8 Noroeste 0 -- -- 41
2020-09-01 11:00:00 17.2 3 Norte 5 Norte 0 -- -- 51
2020-09-01 10:00:00 14.6 3 Norte 4 Norte 0 -- -- 59
2020-09-01 09:00:00 11.6 -- -- -- -- 0 -- -- 72
2020-09-01 08:00:00 10.1 0 Calma -- -- 0 -- -- 73
2020-09-01 07:00:00 9.8 4 Sur 6 Sur 0 -- -- 71
2020-09-01 06:00:00 10.8 2 Sur 8 Sudoeste 0 -- -- 64
2020-09-01 05:00:00 11.6 0 Calma 8 Sur 0 -- -- 63
2020-09-01 04:00:00 12 2 Sur 6 Sur 0 -- -- 60
2020-09-01 03:00:00 12.3 4 Sudoeste 10 Sudoeste 0 -- -- 63
2020-09-01 02:00:00 12.5 4 Sur 8 Sudoeste 0 -- -- 61
2020-09-01 01:00:00 13.1 4 Sur 9 Sur 0 -- -- 55
2020-09-01 00:00:00 14.5 3 Sur 5 Sur 0 -- -- 50
2020-08-31 23:00:00 16 0 Calma 8 Oeste 0 -- -- 49
2020-08-31 22:00:00 18 8 Noroeste 20 Noroeste 0 -- -- 44
2020-08-31 21:00:00 18.9 10 Noroeste 15 Noroeste 0 -- -- 43
2020-08-31 20:00:00 19.9 12 Noroeste 24 Noroeste 0 -- -- 42
2020-08-31 19:00:00 22.8 12 Noroeste 19 Noroeste 0 -- -- 29
2020-08-31 18:00:00 24 8 Noroeste 18 Noroeste 0 -- -- 25
2020-08-31 17:00:00 23.8 9 Noroeste 18 Norte 0 -- -- 23
2020-08-31 16:00:00 23.2 10 Norte 18 Noroeste 0 -- -- 26
2020-08-31 15:00:00 22.1 9 Norte 17 Noroeste 0 -- -- 30
2020-08-31 14:00:00 20.8 9 Norte 18 Norte 0 -- -- 31
2020-08-31 13:00:00 18.4 8 Noroeste 14 Noroeste 0 -- -- 38
2020-08-31 12:00:00 16.6 10 Noroeste 14 Norte 0 -- -- 47
2020-08-31 11:00:00 15 8 Norte 15 Noroeste 0 -- -- 53
2020-08-31 10:00:00 14.1 5 Norte 10 Oeste 0 -- -- 61
2020-08-31 09:00:00 11.5 6 Norte 12 Noroeste 0 -- -- 73
2020-08-31 08:00:00 9.3 2 Oeste 9 Noroeste 0 -- -- 81
2020-08-31 07:00:00 9 3 Noroeste 10 Noroeste 0 -- -- 81
2020-08-31 06:00:00 9.3 4 Noroeste 8 Noroeste 0 -- -- 79
2020-08-31 05:00:00 9.8 4 Noroeste 14 Noroeste 0 -- -- 77
2020-08-31 04:00:00 10.9 12 Noroeste 24 Noroeste 0 -- -- 73
2020-08-31 03:00:00 11.4 11 Noroeste 21 Noroeste 0 -- -- 69
2020-08-31 02:00:00 11.6 15 Noroeste 26 Noroeste 0 -- -- 70
2020-08-31 01:00:00 11.8 8 Noroeste 23 Noroeste 0 -- -- 65
2020-08-31 00:00:00 12.3 15 Noroeste 28 Noroeste 0 -- -- 66
2020-08-30 23:00:00 12.7 16 Noroeste 26 Noroeste 0 -- -- 66
2020-08-30 22:00:00 13.3 15 Noroeste 31 Noroeste 0 -- -- 66
2020-08-30 21:00:00 13.9 21 Noroeste 35 Noroeste 0 -- -- 62
2020-08-30 20:00:00 14.8 17 Noroeste 36 Norte 0 -- -- 57
2020-08-30 19:00:00 16.7 24 Noroeste 39 Noroeste 0 -- -- 50
2020-08-30 18:00:00 17.4 22 Noroeste 40 Noroeste 0 -- -- 48
2020-08-30 17:00:00 17.7 21 Noroeste 35 Noroeste 0 -- -- 49
2020-08-30 16:00:00 17.1 28 Noroeste 42 Noroeste 0 -- -- 52
2020-08-30 15:00:00 17.1 23 Noroeste 31 Noroeste 0 -- -- 54
2020-08-30 14:00:00 16.3 16 Noroeste 28 Noroeste 0 -- -- 57
2020-08-30 13:00:00 15.6 14 Noroeste 27 Oeste 0 -- -- 60
2020-08-30 12:00:00 13.8 17 Noroeste 28 Noroeste 0 -- -- 67
2020-08-30 11:00:00 12.8 13 Noroeste 27 Noroeste 0 -- -- 71
2020-08-30 10:00:00 11.5 16 Noroeste 32 Noroeste 0 -- -- 78
2020-08-30 09:00:00 11 17 Noroeste 29 Noroeste 0 -- -- 80
2020-08-30 08:00:00 10.5 10 Noroeste 22 Noroeste 0 -- -- 84
2020-08-30 07:00:00 10.4 7 Noroeste 22 Noroeste 0 -- -- 81
2020-08-30 06:00:00 10.8 14 Noroeste 31 Noroeste 0 -- -- 81
2020-08-30 05:00:00 10.7 14 Noroeste 25 Noroeste 0 -- -- 81
2020-08-30 04:00:00 10.6 17 Noroeste 32 Noroeste 0 -- -- 79
2020-08-30 03:00:00 10.9 19 Noroeste 27 Noroeste 0 -- -- 82
2020-08-30 02:00:00 11 15 Noroeste 32 Noroeste 0 -- -- 85
2020-08-30 01:00:00 11.1 25 Noroeste 34 Noroeste 0 -- -- 84
2020-08-30 00:00:00 11.5 13 Noroeste 29 Noroeste 0.4 -- -- 87
2020-08-29 23:00:00 13 19 Noroeste 31 Oeste 0 -- -- 79
2020-08-29 22:00:00 13.4 22 Noroeste 35 Noroeste 0 -- -- 73
2020-08-29 21:00:00 14 22 Noroeste 34 Noroeste 0 -- -- 68
2020-08-29 20:00:00 15.7 17 Noroeste 34 Noroeste 0 -- -- 61
2020-08-29 19:00:00 16.6 14 Noroeste 28 Noroeste 0 -- -- 61
2020-08-29 18:00:00 16.5 26 Noroeste 36 Noroeste 0 -- -- 60
2020-08-29 17:00:00 19.2 19 Noroeste 37 Noroeste 0 -- -- 43
2020-08-29 16:00:00 20 21 Noroeste 35 Noroeste 0 -- -- 41
2020-08-29 15:00:00 19 21 Noroeste 35 Noroeste 0 -- -- 43
2020-08-29 14:00:00 17.8 23 Noroeste 35 Noroeste 0 -- -- 49
2020-08-29 13:00:00 17.3 20 Noroeste 33 Noroeste 0 -- -- 52
2020-08-29 12:00:00 17.5 21 Noroeste 32 Noroeste 0 -- -- 50
2020-08-29 11:00:00 16.3 16 Noroeste 25 Noroeste 0 -- -- 56
2020-08-29 10:00:00 14.2 19 Noroeste 29 Noroeste 0 -- -- 66
2020-08-29 09:00:00 13.1 17 Noroeste 22 Noroeste 0 -- -- 74
2020-08-29 08:00:00 12.7 15 Noroeste 24 Noroeste 0 -- -- 77
2020-08-29 07:00:00 12 8 Noroeste 14 Noroeste 0 -- -- 77
2020-08-29 06:00:00 12.2 10 Noroeste 19 Noroeste 0 -- -- 73
2020-08-29 05:00:00 12.9 17 Noroeste 27 Noroeste 0 -- -- 68
2020-08-29 04:00:00 13.4 15 Noroeste 27 Noroeste 0 -- -- 67
2020-08-29 03:00:00 13.6 19 Noroeste 28 Noroeste 0 -- -- 69
2020-08-29 02:00:00 13.9 20 Noroeste 39 Noroeste 0 -- -- 68
2020-08-29 01:00:00 14.1 20 Noroeste 31 Noroeste 0 -- -- 68
2020-08-29 00:00:00 14.4 15 Noroeste 28 Noroeste 0 -- -- 65
2020-08-28 23:00:00 14.6 14 Noroeste 32 Noroeste 0 -- -- 64
2020-08-28 22:00:00 15.2 19 Noroeste 33 Oeste 0 -- -- 69
2020-08-28 21:00:00 15.6 22 Noroeste 36 Norte 0 -- -- 68
2020-08-28 20:00:00 16.8 19 Noroeste 39 Noroeste 0 -- -- 63
2020-08-28 19:00:00 18.8 22 Noroeste 44 Noroeste 0 -- -- 58
2020-08-28 18:00:00 20 28 Noroeste 39 Noroeste 0 -- -- 55
2020-08-28 17:00:00 20.7 19 Noroeste 32 Norte 0 -- -- 52
2020-08-28 16:00:00 20.2 24 Noroeste 40 Oeste 0 -- -- 57
2020-08-28 15:00:00 22.5 18 Noroeste 30 Noroeste 0 -- -- 51
2020-08-28 14:00:00 20.5 18 Noroeste 30 Noroeste 0 -- -- 58
2020-08-28 13:00:00 19.2 17 Noroeste 28 Noroeste 0 -- -- 63
2020-08-28 12:00:00 19.5 13 Noroeste 32 Norte 0 -- -- 66
2020-08-28 11:00:00 20.6 16 Noroeste 26 Noroeste 0 -- -- 68
2020-08-28 10:00:00 20.5 11 Noroeste 15 Noroeste 0 -- -- 71
2020-08-28 09:00:00 19.2 10 Noroeste 17 Noroeste 0 -- -- 78
2020-08-28 08:00:00 18.9 7 Noroeste 19 Noroeste 0 -- -- 77
2020-08-28 07:00:00 18.9 9 Noroeste 13 Noroeste 0 -- -- 77
2020-08-28 06:00:00 18.4 5 Noroeste 14 Noroeste 0 -- -- 80
2020-08-28 05:00:00 17.9 3 Oeste 7 Noroeste 0 -- -- 83
2020-08-28 04:00:00 18.5 4 Noroeste 8 Noroeste 0 -- -- 81
2020-08-28 03:00:00 19.3 4 Oeste 14 Oeste 0 -- -- 77
2020-08-28 02:00:00 20 7 Noroeste 12 Noroeste 0 -- -- 74
2020-08-28 01:00:00 20.7 5 Noroeste 18 Noroeste 0 -- -- 71
2020-08-28 00:00:00 21.3 8 Noroeste 17 Noroeste 0 -- -- 67
2020-08-27 23:00:00 22.4 15 Noroeste 23 Norte 0 -- -- 63
2020-08-27 22:00:00 23.6 19 Noroeste 26 Noroeste 0 -- -- 59
2020-08-27 21:00:00 25.7 12 Noroeste 24 Oeste 0 -- -- 52
2020-08-27 20:00:00 27.2 15 Noroeste 29 Noroeste 0 -- -- 48
2020-08-27 19:00:00 30.4 15 Noroeste 25 Oeste 0 -- -- 39
2020-08-27 18:00:00 32.8 9 Noroeste 25 Noroeste 0 -- -- 30
2020-08-27 17:00:00 33.1 12 Noroeste 23 Noroeste 0 -- -- 26
2020-08-27 16:00:00 32.5 14 Noroeste 23 Noroeste 0 -- -- 31
2020-08-27 15:00:00 32 13 Noroeste 19 Noroeste 0 -- -- 32
2020-08-27 14:00:00 30.4 4 Noroeste 13 Norte 0 -- -- 32
2020-08-27 13:00:00 28.9 6 Norte 14 Norte 0 -- -- 38
2020-08-27 12:00:00 25.5 6 Oeste 12 Norte 0 -- -- 45
2020-08-27 11:00:00 25 6 Norte 8 Norte 0 -- -- 46
2020-08-27 10:00:00 21.7 3 Nordeste 6 Norte 0 -- -- 60
2020-08-27 09:00:00 19.3 3 Nordeste 5 Norte 0 -- -- 72
2020-08-27 08:00:00 15.5 2 Sur 8 Sudoeste 0 -- -- 86
2020-08-27 07:00:00 15.1 0 Calma 8 Sur 0 -- -- 85
2020-08-27 06:00:00 15.3 4 Sudoeste 6 Sudoeste 0 -- -- 84
2020-08-27 05:00:00 16 2 Sur 8 Sudoeste 0 -- -- 81
2020-08-27 04:00:00 17.2 3 Sur 4 Sudeste 0 -- -- 78
2020-08-27 03:00:00 18.8 2 Sur 8 Sudoeste 0 -- -- 74
2020-08-27 02:00:00 18.8 4 Oeste 9 Sur 0 -- -- 72
2020-08-27 01:00:00 18.7 2 Sur 5 Sur 0 -- -- 72
2020-08-27 00:00:00 19.6 2 Oeste 5 Sudoeste 0 -- -- 67
2020-08-26 23:00:00 21.5 2 Norte 10 Norte 0 -- -- 62
2020-08-26 22:00:00 23.1 2 Sudoeste 14 Oeste 0 -- -- 58
2020-08-26 21:00:00 25 10 Noroeste 25 Noroeste 0 -- -- 55
2020-08-26 20:00:00 27.3 16 Noroeste 28 Noroeste 0 -- -- 48
2020-08-26 19:00:00 30.4 15 Noroeste 27 Norte 0 -- -- 40
2020-08-26 18:00:00 33 9 Norte 18 Noroeste 0 -- -- 32
2020-08-26 17:00:00 33 10 Noroeste 19 Norte 0 -- -- 29
2020-08-26 16:00:00 32.3 11 Noroeste 21 Oeste 0 -- -- 34
2020-08-26 15:00:00 32.2 11 Norte 19 Norte 0 -- -- 38
2020-08-26 14:00:00 30.9 11 Norte 15 Nordeste 0 -- -- 41
2020-08-26 13:00:00 28.6 9 Norte 15 Oeste 0 -- -- 44
2020-08-26 12:00:00 25.3 7 Noroeste 14 Norte 0 -- -- 47
2020-08-26 11:00:00 24.2 6 Norte 12 Nordeste 0 -- -- 50
2020-08-26 10:00:00 21.8 5 Este 13 Norte 0 -- -- 60
2020-08-26 09:00:00 18.3 5 Oeste 14 Noroeste 0 -- -- 73
2020-08-26 08:00:00 16 4 Noroeste 6 Oeste 0 -- -- 82
2020-08-26 07:00:00 14.7 3 Sur 5 Sur 0 -- -- 80
2020-08-26 06:00:00 15 3 Sur 6 Sur 0 -- -- 78
2020-08-26 05:00:00 15.7 3 Sur 6 Sur 0 -- -- 75
2020-08-26 04:00:00 16.7 2 Sur 5 Norte 0 -- -- 70
2020-08-26 03:00:00 17.6 2 Nordeste 6 Oeste 0 -- -- 67
2020-08-26 02:00:00 18.7 2 Este 14 Oeste 0 -- -- 62
2020-08-26 01:00:00 19 2 Sudoeste 10 Norte 0 -- -- 61
2020-08-26 00:00:00 20.1 5 Noroeste 7 Noroeste 0 -- -- 57
2020-08-25 23:00:00 21.4 4 Noroeste 13 Noroeste 0 -- -- 54
2020-08-25 22:00:00 22.9 9 Noroeste 17 Noroeste 0 -- -- 51
2020-08-25 21:00:00 26.1 11 Noroeste 24 Noroeste 0 -- -- 44
2020-08-25 20:00:00 30.9 8 Noroeste 17 Noroeste 0 -- -- 26
2020-08-25 19:00:00 32.5 8 Norte 22 Noroeste 0 -- -- 22
2020-08-25 18:00:00 33.1 12 Noroeste 21 Noroeste 0 -- -- 21
2020-08-25 17:00:00 33.3 10 Noroeste 22 Norte 0 -- -- 22
2020-08-25 16:00:00 32.8 14 Noroeste 23 Norte 0 -- -- 24
2020-08-25 15:00:00 31.3 14 Noroeste 22 Noroeste 0 -- -- 26
2020-08-25 14:00:00 31.4 9 Norte 17 Norte 0 -- -- 27
2020-08-25 13:00:00 29.2 10 Noroeste 14 Norte 0 -- -- 31
2020-08-25 12:00:00 27.1 6 Norte 10 Nordeste 0 -- -- 34
2020-08-25 11:00:00 24.3 4 Norte 8 Norte 0 -- -- 39
2020-08-25 10:00:00 20.9 3 Norte 6 Norte 0 -- -- 47
2020-08-25 09:00:00 18.4 2 Nordeste -- -- 0 -- -- 54
2020-08-25 08:00:00 13.4 3 Sur 4 Sur 0 -- -- 70
2020-08-25 07:00:00 12.9 0 Calma -- -- 0 -- -- 71
2020-08-25 06:00:00 13.7 0 Calma 4 Sur 0 -- -- 68
2020-08-25 05:00:00 13.9 0 Calma 6 Sur 0 -- -- 66
2020-08-25 04:00:00 14.3 3 Sur 6 Sur 0 -- -- 65
2020-08-25 03:00:00 15.5 0 Calma 10 Sur 0 -- -- 62
2020-08-25 02:00:00 15.5 3 Sur 10 Sudoeste 0 -- -- 61
2020-08-25 01:00:00 15.7 3 Sur 10 Sudoeste 0 -- -- 57
2020-08-25 00:00:00 16.4 4 Sur 11 Sur 0 -- -- 57
2020-08-24 23:00:00 16.9 6 Sur 8 Sur 0 -- -- 57
2020-08-24 22:00:00 19 3 Sur 5 Sudoeste 0 -- -- 50
2020-08-24 21:00:00 22.5 2 Sudoeste 10 Noroeste 0 -- -- 40
2020-08-24 20:00:00 25.2 9 Noroeste 15 Noroeste 0 -- -- 31
2020-08-24 19:00:00 26.7 9 Noroeste 14 Norte 0 -- -- 31
2020-08-24 18:00:00 27.9 9 Norte 19 Noroeste 0 -- -- 29
2020-08-24 17:00:00 27.5 9 Noroeste 16 Noroeste 0 -- -- 26
2020-08-24 16:00:00 26.4 10 Oeste 25 Noroeste 0 -- -- 29
2020-08-24 15:00:00 25.8 9 Oeste 22 Noroeste 0 -- -- 35
2020-08-24 14:00:00 24.2 8 Oeste 28 Noroeste 0 -- -- 37
2020-08-24 13:00:00 23.2 10 Norte 23 Noroeste 0 -- -- 42
2020-08-24 12:00:00 22.2 6 Noroeste 19 Norte 0 -- -- 46
2020-08-24 11:00:00 20.5 11 Noroeste 18 Norte 0 -- -- 53
2020-08-24 10:00:00 18.1 7 Norte 21 Noroeste 0 -- -- 62
2020-08-24 09:00:00 15.7 17 Noroeste 21 Norte 0 -- -- 71
2020-08-24 08:00:00 14.6 10 Noroeste 14 Noroeste 0 -- -- 74
2020-08-24 07:00:00 13.8 3 Oeste 9 Noroeste 0 -- -- 78
2020-08-24 06:00:00 15 10 Noroeste 17 Noroeste 0 -- -- 73
2020-08-24 05:00:00 14.9 6 Noroeste 20 Oeste 0 -- -- 72
2020-08-24 04:00:00 15.5 14 Noroeste 22 Noroeste 0 -- -- 71
2020-08-24 03:00:00 15.7 13 Noroeste 27 Noroeste 0 -- -- 71
2020-08-24 02:00:00 15.9 14 Noroeste 26 Norte 0 -- -- 71
2020-08-24 01:00:00 16.5 16 Noroeste 24 Noroeste 0 -- -- 70
2020-08-24 00:00:00 17.4 15 Noroeste 20 Norte 0 -- -- 66
2020-08-23 23:00:00 17.9 9 Noroeste 22 Noroeste 0 -- -- 64
2020-08-23 22:00:00 18.8 6 Noroeste 33 Noroeste 0 -- -- 61
2020-08-23 21:00:00 20.2 19 Noroeste 28 Noroeste 0 -- -- 56
2020-08-23 20:00:00 21.7 22 Noroeste 32 Noroeste 0 -- -- 49
2020-08-23 19:00:00 23.2 22 Noroeste 28 Norte 0 -- -- 44
2020-08-23 18:00:00 24.7 19 Noroeste 26 Noroeste 0 -- -- 38
2020-08-23 17:00:00 25.7 18 Noroeste 28 Oeste 0 -- -- 35
2020-08-23 16:00:00 25.2 18 Noroeste 30 Oeste 0 -- -- 36
2020-08-23 15:00:00 24.6 19 Noroeste 30 Oeste 0 -- -- 37
2020-08-23 14:00:00 24 17 Noroeste 26 Norte 0 -- -- 39
2020-08-23 13:00:00 23 18 Noroeste 27 Noroeste 0 -- -- 43
2020-08-23 12:00:00 21.8 16 Noroeste 27 Noroeste 0 -- -- 46
2020-08-23 11:00:00 20.5 15 Noroeste 28 Noroeste 0 -- -- 52
2020-08-23 10:00:00 18.6 18 Noroeste 32 Noroeste 0 -- -- 60
2020-08-23 09:00:00 16.8 15 Noroeste 22 Noroeste 0 -- -- 69
2020-08-23 08:00:00 15.3 9 Noroeste 22 Norte 0 -- -- 76
2020-08-23 07:00:00 15.1 8 Norte 25 Noroeste 0 -- -- 76
2020-08-23 06:00:00 15.8 10 Noroeste 20 Noroeste 0 -- -- 74
2020-08-23 05:00:00 16 11 Noroeste 14 Noroeste 0 -- -- 75
2020-08-23 04:00:00 16.3 8 Noroeste 21 Noroeste 0 -- -- 72
2020-08-23 03:00:00 16.6 13 Noroeste 17 Noroeste 0 -- -- 70
2020-08-23 02:00:00 16.8 11 Noroeste 15 Oeste 0 -- -- 71
2020-08-23 01:00:00 17.3 7 Noroeste 23 Noroeste 0 -- -- 67
2020-08-23 00:00:00 17.8 17 Noroeste 25 Noroeste 0 -- -- 66
2020-08-22 23:00:00 18.5 17 Noroeste 32 Noroeste 0 -- -- 66
2020-08-22 22:00:00 19.6 20 Noroeste 32 Noroeste 0 -- -- 63
2020-08-22 21:00:00 21 18 Noroeste 26 Noroeste 0 -- -- 57
2020-08-22 20:00:00 23.2 20 Noroeste 32 Noroeste 0 -- -- 45
2020-08-22 19:00:00 25.4 18 Noroeste 31 Noroeste 0 -- -- 37
2020-08-22 18:00:00 27 14 Noroeste 29 Norte 0 -- -- 32
2020-08-22 17:00:00 27.6 17 Noroeste 24 Noroeste 0 -- -- 32
2020-08-22 16:00:00 27.4 13 Noroeste 21 Noroeste 0 -- -- 33
2020-08-22 15:00:00 27.8 12 Noroeste 22 Noroeste 0 -- -- 26
2020-08-22 14:00:00 26.3 13 Noroeste 21 Noroeste 0 -- -- 27
2020-08-22 13:00:00 25 13 Noroeste 17 Noroeste 0 -- -- 39
2020-08-22 12:00:00 23.2 6 Noroeste 19 Noroeste 0 -- -- 48
2020-08-22 11:00:00 20 12 Noroeste 17 Noroeste 0 -- -- 60
2020-08-22 10:00:00 17.8 8 Noroeste 17 Noroeste 0 -- -- 69
2020-08-22 09:00:00 16.7 9 Noroeste 15 Oeste 0 -- -- 74
2020-08-22 08:00:00 15.7 5 Noroeste 9 Oeste 0 -- -- 78
2020-08-22 07:00:00 14.5 2 Oeste 6 Noroeste 0 -- -- 83
2020-08-22 06:00:00 15.2 6 Noroeste 10 Noroeste 0 -- -- 85
2020-08-22 05:00:00 15.4 2 Norte 4 Norte 0 -- -- 84
2020-08-22 04:00:00 16.4 0 Calma 5 Noroeste 0 -- -- 83
2020-08-22 03:00:00 17.5 4 Noroeste 11 Oeste 0 -- -- 79
2020-08-22 02:00:00 18.1 10 Noroeste 19 Noroeste 0 -- -- 78
2020-08-22 01:00:00 19.1 12 Noroeste 21 Noroeste 0 -- -- 79
2020-08-22 00:00:00 20.3 3 Noroeste 16 Oeste 0 -- -- 75
2020-08-21 23:00:00 20.9 7 Oeste 24 Oeste 0 -- -- 74
2020-08-21 22:00:00 21.4 15 Noroeste 41 Noroeste 0 -- -- 71
2020-08-21 21:00:00 23.7 11 Oeste 36 Oeste 0 -- -- 64
2020-08-21 20:00:00 25.5 13 Noroeste 31 Noroeste 0 -- -- 58
2020-08-21 19:00:00 32.2 5 Oeste 18 Sudeste 0 -- -- 27
2020-08-21 18:00:00 33.5 8 Sudoeste 19 Oeste 0 -- -- 25
2020-08-21 17:00:00 33.1 10 Sudoeste 25 Sudoeste 0 -- -- 26
2020-08-21 16:00:00 34 8 Sudoeste 19 Oeste 0 -- -- 25
2020-08-21 15:00:00 31.2 9 Sudoeste 24 Sudoeste 0 -- -- 28
2020-08-21 14:00:00 31.2 11 Sur 24 Sudeste 0 -- -- 31
2020-08-21 13:00:00 31.3 10 Sur 23 Sudeste 0 -- -- 30
2020-08-21 12:00:00 30 13 Sudeste 26 Sudeste 0 -- -- 34
2020-08-21 11:00:00 28.2 17 Sudeste 30 Sudeste 0 -- -- 38
2020-08-21 10:00:00 26.6 13 Sudeste 23 Sudeste 0 -- -- 40
2020-08-21 09:00:00 26.3 10 Este 17 Este 0 -- -- 39
2020-08-21 08:00:00 23.5 7 Sudeste 19 Sur 0 -- -- 46
2020-08-21 07:00:00 23.4 10 Sur 17 Sur 0 -- -- 45
2020-08-21 06:00:00 23.8 8 Sudeste 24 Sudeste 0 -- -- 42
2020-08-21 05:00:00 23.9 12 Sudeste 26 Sudeste 0 -- -- 41
2020-08-21 04:00:00 24.6 17 Sudeste 46 Sudeste 0 -- -- 37
2020-08-21 03:00:00 25 26 Sudeste 48 Sudeste 0 -- -- 35
2020-08-21 02:00:00 25.5 31 Sudeste 49 Sudeste 0 -- -- 35
2020-08-21 01:00:00 25.9 29 Sudeste 47 Sudeste 0 -- -- 35
2020-08-21 00:00:00 26.3 31 Sudeste 48 Sudeste 0 -- -- 36